Time;durP1;ratioP1;P1;durP2;ratioP2;P2;SDS_P1;SDS_P2;PMS_P1;PMS_P2;Temp;Humidity;BMP_temperature;BMP_pressure;BME280_temperature;BME280_humidity;BME280_pressure;Samples;Min_cycle;Max_cycle;Signal;HPM_P1;HPM_P2
2021/09/24 00:01:59;;;;;;;5.95;3.67;;;9.60;99.90;;;;;;5067604;28;20161;-72
2021/09/24 00:04:28;;;;;;;6.35;4.28;;;9.60;99.90;;;;;;5069549;28;20193;-72
2021/09/24 00:06:54;;;;;;;8.52;4.13;;;9.60;99.90;;;;;;5071385;28;20161;-71
2021/09/24 00:09:20;;;;;;;6.38;3.70;;;9.70;99.90;;;;;;5071452;28;20169;-71
2021/09/24 00:11:46;;;;;;;13.60;5.07;;;9.60;99.90;;;;;;5071218;28;20169;-71
2021/09/24 00:14:13;;;;;;;7.10;4.07;;;9.60;99.90;;;;;;5053250;28;20221;-71
2021/09/24 00:16:39;;;;;;;8.52;4.00;;;9.70;99.90;;;;;;5071366;28;20168;-71
2021/09/24 00:19:06;;;;;;;4.57;3.60;;;9.80;99.90;;;;;;5071095;28;20161;-71
2021/09/24 00:21:32;;;;;;;8.00;3.97;;;9.90;99.90;;;;;;5071097;28;20263;-71
2021/09/24 00:23:58;;;;;;;4.95;3.47;;;10.00;99.90;;;;;;5080781;28;20680;-71
2021/09/24 00:26:24;;;;;;;5.20;3.53;;;9.90;99.90;;;;;;5091078;28;20629;-71
2021/09/24 00:28:51;;;;;;;7.88;3.35;;;10.10;99.90;;;;;;5091216;28;20156;-71
2021/09/24 00:31:17;;;;;;;7.88;3.97;;;10.00;99.90;;;;;;5070640;28;20184;-71
2021/09/24 00:33:43;;;;;;;7.68;4.32;;;10.10;99.90;;;;;;5070717;28;20270;-71
2021/09/24 00:36:09;;;;;;;6.47;3.15;;;10.10;99.90;;;;;;5070714;28;20602;-72
2021/09/24 00:38:41;;;;;;;9.57;3.85;;;10.10;99.90;;;;;;5070752;28;20173;-71
2021/09/24 00:41:08;;;;;;;9.80;3.72;;;10.20;99.90;;;;;;5070653;28;20196;-71
2021/09/24 00:43:35;;;;;;;6.43;3.03;;;10.10;99.90;;;;;;5070633;28;20196;-71
2021/09/24 00:46:02;;;;;;;8.52;4.10;;;10.10;99.90;;;;;;5070662;28;20175;-71
2021/09/24 00:48:28;;;;;;;6.38;3.88;;;10.10;99.90;;;;;;5070690;28;20175;-71
2021/09/24 00:50:54;;;;;;;5.00;3.33;;;10.00;99.90;;;;;;5070306;28;20280;-72
2021/09/24 00:53:20;;;;;;;8.00;3.30;;;10.00;99.90;;;;;;5052578;28;20246;-71
2021/09/24 00:55:47;;;;;;;6.43;3.65;;;10.00;99.90;;;;;;5070502;28;20153;-71
2021/09/24 00:58:13;;;;;;;4.03;2.70;;;10.00;99.90;;;;;;5070533;28;20180;-71
2021/09/24 01:00:39;;;;;;;3.67;2.88;;;9.90;99.90;;;;;;5070342;28;20193;-71
2021/09/24 01:03:05;;;;;;;3.88;2.75;;;10.10;99.90;;;;;;5070168;28;20205;-71
2021/09/24 01:05:31;;;;;;;4.13;2.80;;;10.00;99.90;;;;;;5070403;28;20165;-71
2021/09/24 01:07:57;;;;;;;5.22;3.10;;;10.00;99.90;;;;;;5052162;28;20179;-71
2021/09/24 01:10:23;;;;;;;3.80;2.70;;;9.90;99.90;;;;;;5052177;28;20207;-71
2021/09/24 01:12:49;;;;;;;7.70;4.25;;;9.80;99.90;;;;;;5069988;28;20165;-71
2021/09/24 01:15:18;;;;;;;5.93;3.13;;;9.90;99.90;;;;;;5051142;28;20192;-71
2021/09/24 01:17:47;;;;;;;7.68;3.15;;;9.80;99.90;;;;;;5069963;28;20177;-71
2021/09/24 01:20:17;;;;;;;6.15;3.53;;;10.00;99.90;;;;;;5069814;28;20211;-71
2021/09/24 01:22:43;;;;;;;5.35;3.25;;;10.00;99.90;;;;;;5068900;28;20247;-71
2021/09/24 01:25:11;;;;;;;5.68;3.63;;;9.90;99.90;;;;;;5089654;28;20183;-72
2021/09/24 01:27:37;;;;;;;8.43;2.95;;;9.90;99.90;;;;;;5089948;28;20148;-71
2021/09/24 01:30:04;;;;;;;5.72;3.00;;;9.90;99.90;;;;;;5089787;28;20507;-71
2021/09/24 01:32:30;;;;;;;5.20;2.80;;;9.90;99.90;;;;;;5089342;28;20195;-72
2021/09/24 01:34:59;;;;;;;5.95;3.53;;;9.90;99.90;;;;;;5089617;28;20196;-72
2021/09/24 01:37:26;;;;;;;8.15;3.65;;;10.00;99.90;;;;;;5089575;28;20219;-74
2021/09/24 01:39:52;;;;;;;5.57;3.17;;;10.00;99.90;;;;;;5089713;28;20195;-72
2021/09/24 01:42:21;;;;;;;4.63;2.88;;;10.10;99.90;;;;;;5089724;28;20164;-73
2021/09/24 01:44:47;;;;;;;9.77;2.97;;;10.00;99.90;;;;;;5082453;28;20197;-72
2021/09/24 01:47:13;;;;;;;6.38;4.05;;;10.10;99.90;;;;;;5069636;28;20310;-72
2021/09/24 01:49:39;;;;;;;4.13;2.72;;;10.10;99.90;;;;;;5051524;28;20176;-72
2021/09/24 01:52:06;;;;;;;5.07;3.08;;;10.10;99.90;;;;;;5069360;28;20221;-72
2021/09/24 01:54:32;;;;;;;4.82;3.40;;;10.10;99.90;;;;;;5069923;28;20197;-72
2021/09/24 01:56:58;;;;;;;5.65;3.08;;;10.10;99.90;;;;;;5069252;28;20161;-72
2021/09/24 01:59:24;;;;;;;8.63;3.10;;;10.00;99.90;;;;;;5068835;28;20502;-72
2021/09/24 02:01:50;;;;;;;6.72;2.90;;;9.90;99.90;;;;;;5069148;28;20249;-71
2021/09/24 02:04:17;;;;;;;6.40;3.58;;;10.00;99.90;;;;;;5069207;28;20193;-72
2021/09/24 02:06:44;;;;;;;6.95;3.13;;;10.10;99.90;;;;;;5069041;28;20149;-71
2021/09/24 02:09:10;;;;;;;6.05;3.10;;;10.10;99.90;;;;;;5069369;28;20229;-73
2021/09/24 02:11:36;;;;;;;5.07;3.40;;;10.10;99.90;;;;;;5069137;28;20160;-73
2021/09/24 02:14:03;;;;;;;5.80;2.65;;;10.10;99.90;;;;;;5069072;28;20197;-73
2021/09/24 02:16:29;;;;;;;5.20;2.92;;;10.10;99.90;;;;;;5068975;28;20157;-72
2021/09/24 02:18:55;;;;;;;3.85;2.78;;;10.10;99.90;;;;;;5068975;28;20195;-72
2021/09/24 02:21:21;;;;;;;4.50;3.03;;;10.10;99.90;;;;;;5050773;28;20284;-73
2021/09/24 02:23:47;;;;;;;5.10;3.17;;;10.10;99.90;;;;;;5068591;28;20310;-72
2021/09/24 02:26:13;;;;;;;6.18;3.38;;;10.10;99.90;;;;;;5068679;28;20185;-73
2021/09/24 02:28:40;;;;;;;9.57;3.45;;;10.10;99.90;;;;;;5068715;28;20172;-72
2021/09/24 02:31:09;;;;;;;5.22;3.30;;;10.20;99.90;;;;;;5068792;28;20177;-72
2021/09/24 02:33:39;;;;;;;7.72;3.33;;;10.20;99.90;;;;;;5068450;28;20219;-72
2021/09/24 02:36:07;;;;;;;14.27;3.63;;;10.20;99.90;;;;;;5068587;28;20174;-72
2021/09/24 02:38:33;;;;;;;3.35;2.75;;;10.20;99.90;;;;;;5068634;28;20227;-74
2021/09/24 02:41:00;;;;;;;7.50;3.30;;;10.20;99.90;;;;;;5068508;28;20275;-72
2021/09/24 02:43:26;;;;;;;9.15;3.50;;;10.10;99.90;;;;;;5068430;28;20219;-72
2021/09/24 02:45:53;;;;;;;5.32;3.28;;;10.10;99.90;;;;;;5068334;28;20173;-71
2021/09/24 02:48:19;;;;;;;8.68;3.25;;;10.10;99.90;;;;;;5068381;28;20160;-73
2021/09/24 02:50:46;;;;;;;8.27;3.20;;;10.10;99.90;;;;;;5068322;28;20227;-72
2021/09/24 02:53:12;;;;;;;6.00;3.55;;;10.30;99.90;;;;;;5068226;28;20248;-74
2021/09/24 02:55:38;;;;;;;12.05;3.47;;;10.20;99.90;;;;;;5068416;28;20267;-73
2021/09/24 02:58:04;;;;;;;6.15;3.25;;;10.30;99.90;;;;;;5050371;28;20180;-73
2021/09/24 03:00:30;;;;;;;6.32;3.53;;;10.20;99.90;;;;;;5068064;28;20219;-72
2021/09/24 03:02:56;;;;;;;9.05;3.72;;;10.20;99.90;;;;;;5068018;28;20156;-74
2021/09/24 03:05:22;;;;;;;6.93;3.15;;;10.20;99.90;;;;;;5068144;28;20551;-72
2021/09/24 03:07:48;;;;;;;7.97;3.20;;;10.10;99.90;;;;;;5068093;28;20203;-73
2021/09/24 03:10:15;;;;;;;6.82;3.05;;;10.10;99.90;;;;;;5068172;28;20218;-73
2021/09/24 03:12:41;;;;;;;7.82;3.22;;;10.10;99.90;;;;;;5068202;28;20574;-73
2021/09/24 03:15:10;;;;;;;6.28;3.40;;;10.00;99.90;;;;;;5068052;28;20165;-73
2021/09/24 03:17:36;;;;;;;8.75;3.83;;;9.90;99.90;;;;;;5068096;28;20176;-73
2021/09/24 03:20:04;;;;;;;6.28;3.53;;;9.80;99.90;;;;;;5067946;28;20211;-73
2021/09/24 03:22:30;;;;;;;8.95;3.78;;;9.80;99.90;;;;;;5050157;28;20164;-73
2021/09/24 03:24:57;;;;;;;5.28;3.60;;;9.80;99.90;;;;;;5079571;28;20198;-73
2021/09/24 03:27:23;;;;;;;8.02;3.53;;;9.70;99.90;;;;;;5088012;28;20575;-72
2021/09/24 03:29:49;;;;;;;5.85;3.58;;;9.60;99.90;;;;;;5088017;28;20171;-73
2021/09/24 03:32:24;;;;;;;6.20;3.08;;;9.60;99.90;;;;;;5087899;28;20172;-73
2021/09/24 03:34:50;;;;;;;6.63;3.28;;;9.50;99.90;;;;;;5087902;28;20214;-73
2021/09/24 03:37:15;;;;;;;5.63;2.88;;;9.40;99.90;;;;;;5088058;28;20163;-71
2021/09/24 03:39:42;;;;;;;10.75;3.83;;;9.40;99.90;;;;;;5090543;28;20183;-75
2021/09/24 03:42:09;;;;;;;5.45;3.47;;;9.30;99.90;;;;;;5073732;28;20172;-72
2021/09/24 03:44:36;;;;;;;5.28;3.33;;;9.40;99.90;;;;;;5086481;28;20253;-71
2021/09/24 03:47:03;;;;;;;9.82;3.65;;;9.40;99.90;;;;;;5071826;28;20167;-72
2021/09/24 03:49:29;;;;;;;5.35;3.42;;;9.30;99.90;;;;;;5070221;28;20547;-72
2021/09/24 03:51:55;;;;;;;4.90;2.95;;;9.30;99.90;;;;;;5053668;28;20245;-72
2021/09/24 03:54:22;;;;;;;6.43;4.10;;;9.20;99.90;;;;;;5071499;28;20204;-74
2021/09/24 03:56:48;;;;;;;13.23;4.03;;;9.20;99.90;;;;;;5071484;28;20505;-72
2021/09/24 03:59:14;;;;;;;8.27;3.63;;;9.20;99.90;;;;;;5071409;28;20180;-73
2021/09/24 04:01:40;;;;;;;6.50;3.70;;;9.20;99.90;;;;;;5071396;28;20181;-71
2021/09/24 04:04:07;;;;;;;7.20;3.35;;;9.20;99.90;;;;;;5071179;28;20214;-72
2021/09/24 04:06:32;;;;;;;8.95;4.18;;;9.20;99.90;;;;;;5071335;28;20217;-72
2021/09/24 04:08:58;;;;;;;7.40;3.83;;;9.10;99.90;;;;;;5053370;28;20168;-74
2021/09/24 04:11:24;;;;;;;6.72;3.80;;;9.20;99.90;;;;;;5071007;28;20175;-72
2021/09/24 04:13:50;;;;;;;15.15;3.90;;;9.10;99.90;;;;;;5071070;28;20188;-75
2021/09/24 04:16:16;;;;;;;8.52;4.80;;;9.20;99.90;;;;;;5071005;28;20167;-74
2021/09/24 04:18:43;;;;;;;11.98;4.55;;;9.00;99.90;;;;;;5070939;28;20160;-74
2021/09/24 04:21:08;;;;;;;8.20;4.20;;;8.80;99.90;;;;;;5070742;28;20224;-72
2021/09/24 04:23:35;;;;;;;9.05;4.40;;;8.60;99.90;;;;;;5070718;28;20192;-72
2021/09/24 04:26:02;;;;;;;7.32;4.55;;;8.70;99.90;;;;;;5070657;28;20176;-72
2021/09/24 04:28:27;;;;;;;11.77;4.10;;;8.60;99.90;;;;;;5070728;28;20244;-73
2021/09/24 04:30:54;;;;;;;6.85;4.20;;;8.70;99.90;;;;;;5070794;28;20167;-72
2021/09/24 04:33:20;;;;;;;8.75;3.75;;;8.60;99.90;;;;;;5070682;28;20189;-72
2021/09/24 04:35:46;;;;;;;8.27;3.80;;;8.60;99.90;;;;;;5052640;28;20172;-72
2021/09/24 04:38:12;;;;;;;6.57;3.60;;;8.60;99.90;;;;;;5070790;28;20267;-72
2021/09/24 04:40:39;;;;;;;6.28;4.15;;;8.70;99.90;;;;;;5070560;28;20184;-73
2021/09/24 04:43:05;;;;;;;12.23;3.90;;;8.60;99.90;;;;;;5070274;28;20661;-72
2021/09/24 04:45:31;;;;;;;6.30;4.38;;;8.70;99.90;;;;;;5070479;28;20161;-72
2021/09/24 04:47:57;;;;;;;8.63;3.78;;;8.50;99.90;;;;;;5070316;28;20193;-73
2021/09/24 04:50:23;;;;;;;10.55;4.68;;;8.60;99.90;;;;;;5068708;28;20220;-73
2021/09/24 04:52:49;;;;;;;5.07;3.38;;;8.60;99.90;;;;;;5070301;28;20157;-73
2021/09/24 04:55:15;;;;;;;8.65;4.47;;;8.60;99.90;;;;;;5070340;28;20156;-72
2021/09/24 04:57:42;;;;;;;7.50;4.15;;;8.60;99.90;;;;;;5070378;28;20167;-74
2021/09/24 05:00:11;;;;;;;8.25;4.10;;;8.40;99.90;;;;;;5052095;28;20199;-74
2021/09/24 05:02:37;;;;;;;7.57;3.90;;;8.40;99.90;;;;;;5052668;28;20160;-74
2021/09/24 05:05:03;;;;;;;5.45;3.60;;;8.50;99.90;;;;;;5069992;28;20272;-72
2021/09/24 05:07:29;;;;;;;10.00;3.65;;;8.50;99.90;;;;;;5069833;28;20167;-73
2021/09/24 05:09:55;;;;;;;8.02;3.83;;;8.50;99.90;;;;;;5069868;28;20184;-72
2021/09/24 05:12:21;;;;;;;13.90;4.43;;;8.40;99.90;;;;;;5069988;28;20164;-72
2021/09/24 05:14:47;;;;;;;12.88;4.80;;;8.40;99.90;;;;;;5069759;28;20196;-72
2021/09/24 05:17:13;;;;;;;14.38;4.68;;;8.60;99.90;;;;;;5051747;28;20173;-72
2021/09/24 05:19:39;;;;;;;12.77;4.00;;;8.80;99.90;;;;;;5069433;28;20256;-72
2021/09/24 05:22:05;;;;;;;7.45;4.43;;;8.90;99.90;;;;;;5069640;28;20177;-72
2021/09/24 05:24:31;;;;;;;12.80;6.13;;;9.00;99.90;;;;;;5069235;28;20242;-72
2021/09/24 05:26:59;;;;;;;14.27;5.68;;;9.10;99.90;;;;;;5069767;28;20164;-73
2021/09/24 05:29:26;;;;;;;18.33;5.53;;;9.30;99.90;;;;;;5069691;28;20153;-73
2021/09/24 05:31:54;;;;;;;9.48;4.45;;;9.40;99.90;;;;;;5051433;28;20186;-74
2021/09/24 05:34:20;;;;;;;18.88;4.95;;;9.30;99.90;;;;;;5069374;28;20185;-72
2021/09/24 05:36:46;;;;;;;13.88;5.00;;;9.30;99.90;;;;;;5069398;28;20161;-72
2021/09/24 05:39:12;;;;;;;17.75;5.53;;;9.40;99.90;;;;;;5069392;28;20180;-73
2021/09/24 05:41:38;;;;;;;11.38;5.68;;;9.50;99.90;;;;;;5069496;28;20156;-73
2021/09/24 05:44:05;;;;;;;13.15;5.15;;;9.60;99.90;;;;;;5069228;28;20195;-73
2021/09/24 05:46:32;;;;;;;11.27;5.00;;;9.80;99.90;;;;;;5069137;28;20157;-72
2021/09/24 05:48:58;;;;;;;10.65;5.00;;;9.90;99.90;;;;;;5069076;28;20595;-72
2021/09/24 05:51:24;;;;;;;8.45;4.70;;;10.10;99.90;;;;;;5068992;28;20315;-72
2021/09/24 05:53:50;;;;;;;12.32;4.82;;;10.20;99.90;;;;;;5069040;28;20214;-72
2021/09/24 05:56:16;;;;;;;9.65;5.03;;;10.20;99.90;;;;;;5066986;28;20179;-72
2021/09/24 05:58:42;;;;;;;10.52;5.57;;;10.30;99.90;;;;;;5066103;28;20165;-72
2021/09/24 06:01:08;;;;;;;10.50;5.63;;;10.30;99.90;;;;;;5067720;28;20215;-71
2021/09/24 06:03:34;;;;;;;10.40;5.60;;;10.40;99.90;;;;;;5068151;28;20252;-71
2021/09/24 06:06:00;;;;;;;15.40;5.50;;;10.60;99.90;;;;;;5067801;28;20182;-71
2021/09/24 06:08:27;;;;;;;16.75;5.95;;;10.70;99.90;;;;;;5066745;28;20164;-73
2021/09/24 06:10:57;;;;;;;8.95;6.13;;;10.80;99.90;;;;;;5067896;28;20184;-72
2021/09/24 06:13:23;;;;;;;15.77;5.10;;;10.90;99.90;;;;;;5067901;28;20189;-72
2021/09/24 06:15:49;;;;;;;13.27;4.55;;;10.90;99.90;;;;;;5067918;28;20222;-72
2021/09/24 06:18:15;;;;;;;15.02;5.53;;;11.00;99.90;;;;;;5068240;28;20668;-74
2021/09/24 06:20:42;;;;;;;12.98;6.07;;;11.20;99.90;;;;;;5068360;28;20180;-72
2021/09/24 06:23:08;;;;;;;11.98;5.85;;;11.30;99.90;;;;;;5068212;28;20220;-73
2021/09/24 06:25:34;;;;;;;9.65;5.32;;;11.60;99.90;;;;;;5068245;28;20209;-72
2021/09/24 06:28:00;;;;;;;10.88;5.47;;;11.80;99.90;;;;;;5068354;28;20177;-73
2021/09/24 06:30:26;;;;;;;9.25;5.40;;;12.30;99.90;;;;;;5068454;28;20622;-72
2021/09/24 06:32:53;;;;;;;10.35;4.60;;;12.30;99.90;;;;;;5067310;28;20168;-72
2021/09/24 06:35:19;;;;;;;14.48;4.65;;;12.30;99.90;;;;;;5068269;28;20157;-72
2021/09/24 06:37:46;;;;;;;7.70;4.72;;;12.40;99.90;;;;;;5050376;28;20183;-71
2021/09/24 06:40:13;;;;;;;11.55;4.15;;;12.50;99.90;;;;;;5068318;28;20180;-73
2021/09/24 06:42:40;;;;;;;12.15;5.28;;;12.70;99.90;;;;;;5067573;28;20187;-74
2021/09/24 06:45:09;;;;;;;13.07;5.18;;;12.90;99.90;;;;;;5057745;28;20236;-73
2021/09/24 06:47:35;;;;;;;15.20;5.63;;;13.10;99.90;;;;;;5068296;28;20253;-71
2021/09/24 06:50:01;;;;;;;12.55;5.20;;;13.60;99.90;;;;;;5067801;28;20169;-74
2021/09/24 06:52:28;;;;;;;8.48;4.93;;;14.10;99.90;;;;;;5068268;28;20666;-73
2021/09/24 06:54:54;;;;;;;8.05;4.40;;;14.60;99.90;;;;;;5066851;28;20192;-73
2021/09/24 06:57:20;;;;;;;10.70;4.95;;;14.70;99.90;;;;;;5044286;28;20267;-74
2021/09/24 06:59:45;;;;;;;12.30;4.90;;;14.20;99.90;;;;;;5066907;28;20255;-73
2021/09/24 07:02:12;;;;;;;12.95;4.78;;;14.00;99.90;;;;;;5067556;28;20629;-72
2021/09/24 07:04:38;;;;;;;15.70;5.18;;;13.90;99.90;;;;;;5067638;28;20220;-74
2021/09/24 07:07:04;;;;;;;9.82;4.47;;;13.90;99.90;;;;;;5066914;28;20335;-74
2021/09/24 07:09:30;;;;;;;17.17;5.13;;;14.20;99.90;;;;;;5065693;28;20172;-73
2021/09/24 07:11:56;;;;;;;8.75;4.60;;;14.40;99.90;;;;;;5068071;28;20161;-73
2021/09/24 07:14:22;;;;;;;8.25;4.38;;;14.50;99.90;;;;;;5049460;28;20204;-73
2021/09/24 07:16:49;;;;;;;10.00;4.75;;;14.70;99.90;;;;;;5068224;28;20282;-73
2021/09/24 07:19:16;;;;;;;13.48;4.35;;;15.00;99.90;;;;;;5067764;28;20186;-73
2021/09/24 07:21:43;;;;;;;8.00;4.28;;;15.10;99.90;;;;;;5068160;28;20180;-73
2021/09/24 07:24:10;;;;;;;8.55;4.35;;;15.60;99.90;;;;;;5067590;28;20200;-73
2021/09/24 07:26:36;;;;;;;10.10;4.40;;;15.90;99.90;;;;;;5072280;28;20190;-74
2021/09/24 07:29:03;;;;;;;7.70;4.13;;;15.80;99.90;;;;;;5067988;28;20165;-74
2021/09/24 07:31:30;;;;;;;9.90;5.15;;;16.10;99.90;;;;;;5067238;28;20182;-73
2021/09/24 07:33:56;;;;;;;7.15;4.53;;;17.10;99.90;;;;;;5067439;28;20226;-73
2021/09/24 07:36:22;;;;;;;7.38;3.95;;;17.80;99.90;;;;;;5067313;28;20187;-73
2021/09/24 07:38:49;;;;;;;10.93;3.70;;;18.00;99.90;;;;;;5067663;28;20161;-72
2021/09/24 07:41:19;;;;;;;7.97;3.92;;;18.40;99.90;;;;;;5067604;28;20199;-73
2021/09/24 07:43:48;;;;;;;10.13;3.55;;;19.20;99.90;;;;;;5067204;28;20184;-73
2021/09/24 07:46:14;;;;;;;4.78;3.25;;;18.60;99.90;;;;;;5067076;28;20173;-72
2021/09/24 07:48:42;;;;;;;4.07;2.75;;;18.00;99.90;;;;;;5049576;28;20179;-72
2021/09/24 07:51:09;;;;;;;7.18;2.97;;;19.00;99.90;;;;;;5066082;28;20224;-72
2021/09/24 07:53:36;;;;;;;5.15;2.55;;;19.90;99.90;;;;;;5066916;28;20172;-72
2021/09/24 07:56:04;;;;;;;4.10;2.78;;;20.50;99.90;;;;;;5067355;28;20239;-72
2021/09/24 07:58:30;;;;;;;5.85;3.10;;;21.20;99.90;;;;;;5067151;28;20164;-72
2021/09/24 08:00:56;;;;;;;4.72;2.00;;;21.50;99.90;;;;;;5067348;28;20192;-72
2021/09/24 08:03:21;;;;;;;4.20;2.13;;;22.20;99.90;;;;;;5067349;28;20175;-72
2021/09/24 08:05:48;;;;;;;4.57;2.30;;;22.80;99.90;;;;;;5067291;28;20644;-74
2021/09/24 08:08:14;;;;;;;5.32;2.00;;;22.30;99.90;;;;;;5067251;28;20167;-72
2021/09/24 08:10:40;;;;;;;3.25;2.15;;;21.60;99.90;;;;;;5067384;28;20214;-72
2021/09/24 08:13:06;;;;;;;7.30;1.92;;;21.60;99.90;;;;;;5067200;28;20173;-73
2021/09/24 08:15:34;;;;;;;1.58;1.38;;;21.80;99.90;;;;;;5067229;28;20195;-73
2021/09/24 08:18:00;;;;;;;2.33;1.60;;;22.50;99.90;;;;;;5067199;28;20160;-72
2021/09/24 08:20:26;;;;;;;4.70;1.23;;;22.60;99.90;;;;;;5067113;28;20211;-72
2021/09/24 08:22:52;;;;;;;2.38;1.58;;;22.20;99.90;;;;;;5066893;28;20236;-72
2021/09/24 08:25:19;;;;;;;3.47;1.50;;;22.80;99.90;;;;;;5073663;28;20192;-72
2021/09/24 08:27:46;;;;;;;3.42;1.20;;;22.90;99.90;;;;;;5070683;28;20178;-72
2021/09/24 08:30:15;;;;;;;1.92;1.38;;;23.20;99.90;;;;;;5070594;28;20252;-71
2021/09/24 08:32:41;;;;;;;2.85;1.38;;;23.80;99.90;;;;;;5070763;28;20191;-72
2021/09/24 08:35:10;;;;;;;2.10;1.52;;;23.60;99.90;;;;;;5070487;28;20192;-73
2021/09/24 08:37:38;;;;;;;2.75;1.95;;;23.60;99.90;;;;;;5052438;28;20198;-72
2021/09/24 08:40:06;;;;;;;2.72;1.70;;;23.80;99.90;;;;;;5070275;28;20203;-72
2021/09/24 08:42:33;;;;;;;4.55;1.67;;;24.50;99.90;;;;;;5070575;28;20613;-72
2021/09/24 08:45:00;;;;;;;2.45;1.60;;;25.20;99.90;;;;;;5070241;28;20192;-73
2021/09/24 08:47:27;;;;;;;3.03;2.03;;;25.10;99.70;;;;;;5070802;28;20202;-73
2021/09/24 08:49:54;;;;;;;2.85;1.67;;;25.90;97.30;;;;;;5070385;28;20153;-73
2021/09/24 08:52:20;;;;;;;2.70;1.40;;;26.60;97.80;;;;;;5070278;28;20239;-72
2021/09/24 08:54:46;;;;;;;3.28;1.48;;;25.70;98.60;;;;;;5070083;28;20192;-72
2021/09/24 08:57:16;;;;;;;3.85;1.33;;;24.60;97.50;;;;;;5070114;28;20165;-71
2021/09/24 08:59:42;;;;;;;1.83;1.30;;;24.70;97.30;;;;;;5070046;28;20184;-72
2021/09/24 09:02:10;;;;;;;4.03;1.23;;;23.90;98.00;;;;;;5070136;28;20165;-72
2021/09/24 09:04:38;;;;;;;4.90;1.38;;;24.50;99.40;;;;;;5070029;28;20222;-72
2021/09/24 09:07:18;;;;;;;2.25;1.25;;;24.70;99.90;;;;;;5069986;28;20148;-73
2021/09/24 09:09:46;;;;;;;3.05;1.80;;;26.10;97.40;;;;;;5051840;28;20267;-73
2021/09/24 09:12:25;;;;;;;2.05;1.50;;;26.10;98.00;;;;;;5069735;28;20179;-73
2021/09/24 09:15:05;;;;;;;3.22;1.40;;;24.00;97.70;;;;;;5069704;28;20192;-73
2021/09/24 09:17:38;;;;;;;1.38;1.15;;;23.10;99.10;;;;;;5069812;28;20227;-72
2021/09/24 09:20:25;;;;;;;1.48;1.20;;;23.70;98.20;;;;;;5069383;28;20207;-72
2021/09/24 09:23:00;;;;;;;3.38;1.60;;;23.60;99.90;;;;;;5069561;28;20667;-74
2021/09/24 09:25:27;;;;;;;1.60;1.15;;;22.70;99.90;;;;;;5069122;28;20191;-71
2021/09/24 09:27:59;;;;;;;2.72;1.50;;;22.70;99.90;;;;;;5069320;28;20183;-72
2021/09/24 09:30:26;;;;;;;2.17;1.27;;;23.00;99.90;;;;;;5051186;28;20207;-71
2021/09/24 09:33:00;;;;;;;4.05;1.45;;;23.40;99.90;;;;;;5069049;28;20163;-71
2021/09/24 09:35:27;;;;;;;3.08;1.45;;;23.60;99.90;;;;;;5069120;28;20710;-72
2021/09/24 09:37:55;;;;;;;2.47;1.55;;;23.20;99.90;;;;;;5068264;28;20212;-72
2021/09/24 09:40:22;;;;;;;3.15;1.40;;;22.80;99.90;;;;;;5069024;28;20245;-72
2021/09/24 09:42:54;;;;;;;2.00;1.20;;;22.50;99.90;;;;;;5068952;28;20156;-71
2021/09/24 09:45:21;;;;;;;2.50;1.52;;;22.80;99.90;;;;;;5068838;28;20278;-71
2021/09/24 09:47:49;;;;;;;1.58;1.10;;;23.20;99.90;;;;;;5068886;28;20160;-72
2021/09/24 09:50:24;;;;;;;2.15;1.13;;;23.80;99.30;;;;;;5068770;28;20160;-72
2021/09/24 09:53:12;;;;;;;1.95;0.88;;;23.70;99.40;;;;;;5068701;28;20171;-71
2021/09/24 09:55:40;;;;;;;1.35;1.20;;;24.10;98.30;;;;;;5068694;28;20202;-72
2021/09/24 09:58:09;;;;;;;1.75;0.93;;;24.60;99.00;;;;;;5068744;28;20164;-73
2021/09/24 10:00:51;;;;;;;2.22;1.42;;;25.00;97.50;;;;;;5068828;28;20195;-73
2021/09/24 10:03:17;;;;;;;1.42;1.27;;;24.40;96.50;;;;;;5068713;28;20239;-72
2021/09/24 10:05:44;;;;;;;1.67;1.08;;;24.90;96.40;;;;;;5050529;28;20318;-72
2021/09/24 10:08:32;;;;;;;2.20;1.20;;;25.10;95.30;;;;;;5068321;28;20165;-72
2021/09/24 10:11:13;;;;;;;1.55;1.20;;;25.50;95.00;;;;;;5068622;28;20156;-72
2021/09/24 10:14:06;;;;;;;1.25;1.00;;;26.80;97.40;;;;;;5068423;28;20157;-72
2021/09/24 10:16:44;;;;;;;2.28;1.00;;;26.90;92.60;;;;;;5068356;28;20203;-72
2021/09/24 10:19:11;;;;;;;1.70;1.00;;;25.60;94.30;;;;;;5068447;28;20173;-72
2021/09/24 10:21:37;;;;;;;6.07;0.80;;;25.80;93.50;;;;;;5067975;28;20200;-72
2021/09/24 10:24:04;;;;;;;3.75;1.15;;;26.20;93.30;;;;;;5068012;28;20210;-72
2021/09/24 10:26:38;;;;;;;1.00;0.82;;;27.10;92.60;;;;;;5068212;28;20188;-72
2021/09/24 10:29:32;;;;;;;1.15;0.80;;;26.60;92.70;;;;;;5068252;28;20499;-72
2021/09/24 10:32:16;;;;;;;1.05;0.75;;;26.40;92.40;;;;;;5068112;28;20156;-72
2021/09/24 10:35:04;;;;;;;2.45;1.30;;;26.60;94.00;;;;;;5067171;28;20214;-72
2021/09/24 10:37:36;;;;;;;2.83;1.10;;;26.20;90.60;;;;;;5066563;28;20224;-72
2021/09/24 10:40:20;;;;;;;2.20;1.00;;;26.30;92.50;;;;;;5067841;28;20203;-72
2021/09/24 10:42:52;;;;;;;4.00;0.77;;;26.60;92.40;;;;;;5067900;28;20152;-72
2021/09/24 10:45:29;;;;;;;1.00;0.90;;;28.10;91.70;;;;;;5067586;28;20187;-72
2021/09/24 10:47:59;;;;;;;2.25;1.00;;;27.60;90.50;;;;;;5067130;28;20164;-72
2021/09/24 10:53:29;;;;;;;1.02;0.82;;;28.00;90.80;;;;;;5068046;28;20164;-72
2021/09/24 10:55:54;;;;;;;2.25;1.25;;;27.70;88.10;;;;;;5055711;28;20202;-73
2021/09/24 10:58:26;;;;;;;1.55;1.35;;;27.80;90.80;;;;;;5067298;28;20168;-72
2021/09/24 11:00:55;;;;;;;2.50;0.90;;;27.10;91.30;;;;;;5067713;28;20187;-73
2021/09/24 11:03:23;;;;;;;1.60;1.45;;;27.10;91.40;;;;;;5067554;28;20167;-73
2021/09/24 11:05:55;;;;;;;1.25;1.08;;;27.00;91.00;;;;;;5067578;28;20209;-73
2021/09/24 11:08:33;;;;;;;3.65;1.30;;;27.40;91.90;;;;;;5067712;28;20315;-73
2021/09/24 11:11:06;;;;;;;2.67;1.20;;;28.10;91.00;;;;;;5067678;28;20487;-73
2021/09/24 11:13:34;;;;;;;1.83;1.02;;;27.50;91.20;;;;;;5067661;28;20160;-73
2021/09/24 11:16:09;;;;;;;3.03;1.13;;;27.10;91.50;;;;;;5067829;28;20164;-72
2021/09/24 11:18:49;;;;;;;2.30;1.10;;;26.90;92.00;;;;;;5067440;28;20187;-72
2021/09/24 11:21:20;;;;;;;1.58;1.33;;;27.20;91.80;;;;;;5067450;28;20278;-75
2021/09/24 11:23:47;;;;;;;3.10;0.98;;;27.30;92.10;;;;;;5048989;28;20229;-74
2021/09/24 11:26:22;;;;;;;3.05;1.23;;;27.50;91.10;;;;;;5067394;28;20179;-74
2021/09/24 11:29:05;;;;;;;1.10;1.00;;;27.10;90.90;;;;;;5067527;28;20155;-73
2021/09/24 11:31:54;;;;;;;1.70;1.15;;;27.40;91.10;;;;;;5066681;28;20161;-73
2021/09/24 11:34:52;;;;;;;1.30;0.93;;;27.90;90.90;;;;;;5051316;28;20214;-73
2021/09/24 11:37:25;;;;;;;2.42;1.30;;;28.70;90.10;;;;;;4966443;29;20187;-73
2021/09/24 11:40:05;;;;;;;3.25;1.33;;;28.60;90.40;;;;;;4966645;29;20289;-73
2021/09/24 11:42:34;;;;;;;2.67;1.20;;;28.30;90.40;;;;;;4965739;29;20241;-73
2021/09/24 11:45:02;;;;;;;1.10;0.82;;;28.00;91.10;;;;;;4975164;28;20205;-74
2021/09/24 11:47:32;;;;;;;4.47;1.20;;;28.70;89.60;;;;;;4986251;28;20215;-74
2021/09/24 11:50:05;;;;;;;2.10;1.00;;;28.20;90.60;;;;;;4986250;28;20163;-73
2021/09/24 11:52:41;;;;;;;1.75;1.10;;;27.80;90.80;;;;;;4986238;28;20175;-72
2021/09/24 11:55:30;;;;;;;3.33;1.27;;;28.40;91.60;;;;;;4986127;28;20339;-73
2021/09/24 11:58:09;;;;;;;2.30;1.02;;;29.90;89.00;;;;;;4986334;28;20590;-73
2021/09/24 12:00:44;;;;;;;6.18;1.73;;;30.20;90.10;;;;;;4988067;28;20210;-73
2021/09/24 12:03:30;;;;;;;1.92;1.10;;;30.20;87.00;;;;;;4989592;28;20198;-72
2021/09/24 12:06:14;;;;;;;2.20;1.00;;;29.50;86.20;;;;;;4989508;28;20187;-73
2021/09/24 12:08:48;;;;;;;1.73;1.30;;;29.10;87.40;;;;;;4989608;28;20175;-73
2021/09/24 12:11:22;;;;;;;1.00;0.95;;;30.10;86.40;;;;;;4989903;28;20167;-73
2021/09/24 12:13:54;;;;;;;2.47;1.20;;;29.00;88.80;;;;;;5043423;28;20183;-73
2021/09/24 12:16:23;;;;;;;1.95;1.40;;;28.00;91.70;;;;;;5050661;28;20531;-72
2021/09/24 12:19:00;;;;;;;2.10;1.17;;;26.80;92.40;;;;;;5050666;28;20252;-73
2021/09/24 12:21:30;;;;;;;2.20;1.30;;;26.10;92.80;;;;;;5050566;28;20196;-74
2021/09/24 12:23:57;;;;;;;1.20;1.10;;;25.60;93.60;;;;;;5067213;28;20191;-74
2021/09/24 12:26:35;;;;;;;0.70;0.70;;;25.30;94.10;;;;;;5070609;28;20179;-74
2021/09/24 12:29:03;;;;;;;0.85;0.85;;;25.00;93.60;;;;;;5070359;28;20160;-73
2021/09/24 12:31:35;;;;;;;2.95;1.10;;;25.10;93.80;;;;;;5052385;28;20176;-74
2021/09/24 12:34:01;;;;;;;1.83;0.98;;;24.90;93.90;;;;;;5070348;28;20251;-73
2021/09/24 12:36:27;;;;;;;1.67;0.88;;;25.00;93.10;;;;;;5070617;28;20160;-74
2021/09/24 12:39:11;;;;;;;1.05;0.93;;;24.70;93.70;;;;;;5070528;28;20231;-73
2021/09/24 12:41:38;;;;;;;2.47;1.05;;;24.70;93.80;;;;;;5070257;28;20188;-73
2021/09/24 12:44:04;;;;;;;1.65;1.15;;;24.90;94.40;;;;;;5069904;28;20324;-73
2021/09/24 12:46:59;;;;;;;1.40;0.90;;;25.10;93.40;;;;;;5070174;28;20192;-72
2021/09/24 12:49:27;;;;;;;1.25;1.00;;;25.00;94.00;;;;;;5070364;28;20168;-73
2021/09/24 12:51:55;;;;;;;0.85;0.85;;;25.00;93.20;;;;;;5069955;28;20219;-73
2021/09/24 12:54:24;;;;;;;1.35;0.80;;;24.80;94.20;;;;;;5051997;28;20195;-73
2021/09/24 12:56:50;;;;;;;3.33;1.00;;;24.80;93.70;;;;;;5070255;28;20152;-73
2021/09/24 12:59:19;;;;;;;1.67;0.85;;;24.80;93.80;;;;;;5069685;28;20605;-72